sensor_id;sensor_type;location;lat;lon;timestamp;P1;durP1;ratioP1;P2;durP2;ratioP2
5999;SDS011;3028;49.468;7.694;2024-03-22T00:01:01;1.40;;;1.30;;
5999;SDS011;3028;49.468;7.694;2024-03-22T00:03:02;2.85;;;1.45;;
5999;SDS011;3028;49.468;7.694;2024-03-22T00:05:03;1.38;;;1.27;;
5999;SDS011;3028;49.468;7.694;2024-03-22T00:07:04;1.10;;;1.10;;
5999;SDS011;3028;49.468;7.694;2024-03-22T00:09:05;1.95;;;1.27;;
5999;SDS011;3028;49.468;7.694;2024-03-22T00:11:06;1.63;;;1.52;;
5999;SDS011;3028;49.468;7.694;2024-03-22T00:13:07;3.30;;;1.85;;
5999;SDS011;3028;49.468;7.694;2024-03-22T00:15:07;1.48;;;1.38;;
5999;SDS011;3028;49.468;7.694;2024-03-22T00:17:08;1.30;;;1.20;;
5999;SDS011;3028;49.468;7.694;2024-03-22T00:19:09;1.73;;;1.63;;
5999;SDS011;3028;49.468;7.694;2024-03-22T00:21:10;1.27;;;1.17;;
5999;SDS011;3028;49.468;7.694;2024-03-22T00:23:11;1.30;;;1.10;;
5999;SDS011;3028;49.468;7.694;2024-03-22T00:25:11;1.33;;;1.23;;
5999;SDS011;3028;49.468;7.694;2024-03-22T00:27:12;1.25;;;1.15;;
5999;SDS011;3028;49.468;7.694;2024-03-22T00:29:13;0.93;;;0.93;;
5999;SDS011;3028;49.468;7.694;2024-03-22T00:31:14;1.95;;;1.45;;
5999;SDS011;3028;49.468;7.694;2024-03-22T00:33:14;1.30;;;1.23;;
5999;SDS011;3028;49.468;7.694;2024-03-22T00:35:15;1.48;;;1.38;;
5999;SDS011;3028;49.468;7.694;2024-03-22T00:37:16;1.33;;;1.33;;
5999;SDS011;3028;49.468;7.694;2024-03-22T00:39:16;0.90;;;0.90;;
5999;SDS011;3028;49.468;7.694;2024-03-22T00:41:17;1.40;;;1.35;;
5999;SDS011;3028;49.468;7.694;2024-03-22T00:43:19;1.30;;;1.20;;
5999;SDS011;3028;49.468;7.694;2024-03-22T00:45:20;1.08;;;1.05;;
5999;SDS011;3028;49.468;7.694;2024-03-22T00:47:21;1.55;;;1.45;;
5999;SDS011;3028;49.468;7.694;2024-03-22T00:49:22;1.08;;;1.00;;
5999;SDS011;3028;49.468;7.694;2024-03-22T00:51:22;1.17;;;1.00;;
5999;SDS011;3028;49.468;7.694;2024-03-22T00:53:23;1.17;;;1.08;;
5999;SDS011;3028;49.468;7.694;2024-03-22T00:55:24;0.98;;;0.98;;
5999;SDS011;3028;49.468;7.694;2024-03-22T00:57:25;1.30;;;1.20;;
5999;SDS011;3028;49.468;7.694;2024-03-22T00:59:26;1.25;;;1.15;;
5999;SDS011;3028;49.468;7.694;2024-03-22T01:01:26;0.98;;;0.98;;
5999;SDS011;3028;49.468;7.694;2024-03-22T01:03:27;0.98;;;0.98;;
5999;SDS011;3028;49.468;7.694;2024-03-22T01:05:28;2.70;;;2.05;;
5999;SDS011;3028;49.468;7.694;2024-03-22T01:07:29;1.48;;;1.38;;
5999;SDS011;3028;49.468;7.694;2024-03-22T01:09:30;1.48;;;1.38;;
5999;SDS011;3028;49.468;7.694;2024-03-22T01:11:31;1.13;;;1.13;;
5999;SDS011;3028;49.468;7.694;2024-03-22T01:13:31;1.25;;;1.15;;
5999;SDS011;3028;49.468;7.694;2024-03-22T01:15:32;1.10;;;1.10;;
5999;SDS011;3028;49.468;7.694;2024-03-22T01:17:33;0.80;;;0.80;;
5999;SDS011;3028;49.468;7.694;2024-03-22T01:19:34;1.60;;;1.20;;
5999;SDS011;3028;49.468;7.694;2024-03-22T01:21:35;1.58;;;1.58;;
5999;SDS011;3028;49.468;7.694;2024-03-22T01:23:36;0.90;;;0.90;;
5999;SDS011;3028;49.468;7.694;2024-03-22T01:25:36;0.90;;;0.90;;
5999;SDS011;3028;49.468;7.694;2024-03-22T01:27:37;1.10;;;1.10;;
5999;SDS011;3028;49.468;7.694;2024-03-22T01:29:38;1.13;;;1.02;;
5999;SDS011;3028;49.468;7.694;2024-03-22T01:31:39;1.90;;;1.70;;
5999;SDS011;3028;49.468;7.694;2024-03-22T01:33:40;1.02;;;1.02;;
5999;SDS011;3028;49.468;7.694;2024-03-22T01:35:40;1.35;;;1.25;;
5999;SDS011;3028;49.468;7.694;2024-03-22T01:37:41;2.10;;;1.52;;
5999;SDS011;3028;49.468;7.694;2024-03-22T01:39:42;1.23;;;1.13;;
5999;SDS011;3028;49.468;7.694;2024-03-22T01:41:43;1.63;;;1.52;;
5999;SDS011;3028;49.468;7.694;2024-03-22T01:43:44;1.75;;;1.65;;
5999;SDS011;3028;49.468;7.694;2024-03-22T01:45:45;2.80;;;1.80;;
5999;SDS011;3028;49.468;7.694;2024-03-22T01:47:45;1.33;;;1.33;;
5999;SDS011;3028;49.468;7.694;2024-03-22T01:49:47;1.00;;;1.00;;
5999;SDS011;3028;49.468;7.694;2024-03-22T01:51:48;1.13;;;1.13;;
5999;SDS011;3028;49.468;7.694;2024-03-22T01:53:49;1.17;;;1.13;;
5999;SDS011;3028;49.468;7.694;2024-03-22T01:55:49;1.52;;;1.38;;
5999;SDS011;3028;49.468;7.694;2024-03-22T01:57:53;1.13;;;1.02;;
5999;SDS011;3028;49.468;7.694;2024-03-22T01:59:54;1.38;;;1.27;;
5999;SDS011;3028;49.468;7.694;2024-03-22T02:01:56;1.60;;;1.50;;
5999;SDS011;3028;49.468;7.694;2024-03-22T02:03:57;1.00;;;1.00;;
5999;SDS011;3028;49.468;7.694;2024-03-22T02:05:57;1.45;;;1.35;;
5999;SDS011;3028;49.468;7.694;2024-03-22T02:07:58;1.33;;;1.33;;
5999;SDS011;3028;49.468;7.694;2024-03-22T02:09:59;1.50;;;1.40;;
5999;SDS011;3028;49.468;7.694;2024-03-22T02:12:01;1.23;;;1.13;;
5999;SDS011;3028;49.468;7.694;2024-03-22T02:14:01;1.58;;;1.48;;
5999;SDS011;3028;49.468;7.694;2024-03-22T02:16:05;1.42;;;1.33;;
5999;SDS011;3028;49.468;7.694;2024-03-22T02:18:06;1.40;;;1.30;;
5999;SDS011;3028;49.468;7.694;2024-03-22T02:20:10;1.45;;;1.35;;
5999;SDS011;3028;49.468;7.694;2024-03-22T02:22:12;2.25;;;1.48;;
5999;SDS011;3028;49.468;7.694;2024-03-22T02:24:12;1.65;;;1.55;;
5999;SDS011;3028;49.468;7.694;2024-03-22T02:26:14;1.52;;;1.42;;
5999;SDS011;3028;49.468;7.694;2024-03-22T02:28:14;1.50;;;1.40;;
5999;SDS011;3028;49.468;7.694;2024-03-22T02:30:15;1.92;;;1.63;;
5999;SDS011;3028;49.468;7.694;2024-03-22T02:32:17;0.90;;;0.90;;
5999;SDS011;3028;49.468;7.694;2024-03-22T02:34:17;1.65;;;1.52;;
5999;SDS011;3028;49.468;7.694;2024-03-22T02:36:18;1.83;;;1.73;;
5999;SDS011;3028;49.468;7.694;2024-03-22T02:38:19;1.27;;;1.25;;
5999;SDS011;3028;49.468;7.694;2024-03-22T02:40:20;1.40;;;1.30;;
5999;SDS011;3028;49.468;7.694;2024-03-22T02:42:21;1.42;;;1.33;;
5999;SDS011;3028;49.468;7.694;2024-03-22T02:44:21;2.88;;;1.30;;
5999;SDS011;3028;49.468;7.694;2024-03-22T02:46:22;1.40;;;1.20;;
5999;SDS011;3028;49.468;7.694;2024-03-22T02:48:23;1.02;;;1.02;;
5999;SDS011;3028;49.468;7.694;2024-03-22T02:50:23;1.55;;;1.45;;
5999;SDS011;3028;49.468;7.694;2024-03-22T02:52:24;1.67;;;1.38;;
5999;SDS011;3028;49.468;7.694;2024-03-22T02:54:25;2.08;;;1.67;;
5999;SDS011;3028;49.468;7.694;2024-03-22T02:56:25;1.33;;;1.23;;
5999;SDS011;3028;49.468;7.694;2024-03-22T02:58:26;2.25;;;1.15;;
5999;SDS011;3028;49.468;7.694;2024-03-22T03:00:27;1.42;;;1.35;;
5999;SDS011;3028;49.468;7.694;2024-03-22T03:02:27;1.42;;;1.33;;
5999;SDS011;3028;49.468;7.694;2024-03-22T03:04:28;1.55;;;1.45;;
5999;SDS011;3028;49.468;7.694;2024-03-22T03:06:29;4.50;;;1.83;;
5999;SDS011;3028;49.468;7.694;2024-03-22T03:08:30;1.67;;;1.58;;
5999;SDS011;3028;49.468;7.694;2024-03-22T03:10:30;1.67;;;1.55;;
5999;SDS011;3028;49.468;7.694;2024-03-22T03:12:31;1.63;;;1.10;;
5999;SDS011;3028;49.468;7.694;2024-03-22T03:14:32;1.63;;;1.52;;
5999;SDS011;3028;49.468;7.694;2024-03-22T03:16:32;1.95;;;1.80;;
5999;SDS011;3028;49.468;7.694;2024-03-22T03:18:33;1.58;;;1.48;;
5999;SDS011;3028;49.468;7.694;2024-03-22T03:20:34;1.60;;;1.50;;
5999;SDS011;3028;49.468;7.694;2024-03-22T03:22:34;1.90;;;1.77;;
5999;SDS011;3028;49.468;7.694;2024-03-22T03:24:35;1.83;;;1.73;;
5999;SDS011;3028;49.468;7.694;2024-03-22T03:26:36;1.75;;;1.65;;
5999;SDS011;3028;49.468;7.694;2024-03-22T03:28:36;2.05;;;1.95;;
5999;SDS011;3028;49.468;7.694;2024-03-22T03:30:37;1.80;;;1.70;;
5999;SDS011;3028;49.468;7.694;2024-03-22T03:32:38;4.78;;;1.17;;
5999;SDS011;3028;49.468;7.694;2024-03-22T03:34:39;1.50;;;1.40;;
5999;SDS011;3028;49.468;7.694;2024-03-22T03:36:39;2.17;;;1.38;;
5999;SDS011;3028;49.468;7.694;2024-03-22T03:38:40;1.45;;;1.42;;
5999;SDS011;3028;49.468;7.694;2024-03-22T03:40:41;1.77;;;1.30;;
5999;SDS011;3028;49.468;7.694;2024-03-22T03:42:42;1.63;;;1.52;;
5999;SDS011;3028;49.468;7.694;2024-03-22T03:44:43;1.27;;;1.27;;
5999;SDS011;3028;49.468;7.694;2024-03-22T03:46:44;1.27;;;1.17;;
5999;SDS011;3028;49.468;7.694;2024-03-22T03:48:44;1.73;;;1.63;;
5999;SDS011;3028;49.468;7.694;2024-03-22T03:50:51;1.92;;;1.83;;
5999;SDS011;3028;49.468;7.694;2024-03-22T03:52:55;4.20;;;1.77;;
5999;SDS011;3028;49.468;7.694;2024-03-22T03:54:56;1.63;;;1.52;;
5999;SDS011;3028;49.468;7.694;2024-03-22T03:56:57;4.55;;;1.48;;
5999;SDS011;3028;49.468;7.694;2024-03-22T03:58:57;1.80;;;1.70;;
5999;SDS011;3028;49.468;7.694;2024-03-22T04:00:58;2.03;;;1.92;;
5999;SDS011;3028;49.468;7.694;2024-03-22T04:02:59;1.60;;;1.50;;
5999;SDS011;3028;49.468;7.694;2024-03-22T04:04:59;1.73;;;1.65;;
5999;SDS011;3028;49.468;7.694;2024-03-22T04:07:00;1.73;;;1.63;;
5999;SDS011;3028;49.468;7.694;2024-03-22T04:09:01;2.05;;;1.85;;
5999;SDS011;3028;49.468;7.694;2024-03-22T04:11:03;1.40;;;1.30;;
5999;SDS011;3028;49.468;7.694;2024-03-22T04:13:04;1.42;;;1.35;;
5999;SDS011;3028;49.468;7.694;2024-03-22T04:15:08;6.95;;;1.75;;
5999;SDS011;3028;49.468;7.694;2024-03-22T04:17:08;1.05;;;0.90;;
5999;SDS011;3028;49.468;7.694;2024-03-22T04:19:09;1.70;;;1.60;;
5999;SDS011;3028;49.468;7.694;2024-03-22T04:21:10;1.40;;;1.30;;
5999;SDS011;3028;49.468;7.694;2024-03-22T04:23:11;1.20;;;1.15;;
5999;SDS011;3028;49.468;7.694;2024-03-22T04:25:11;1.40;;;1.25;;
5999;SDS011;3028;49.468;7.694;2024-03-22T04:27:12;2.03;;;1.42;;
5999;SDS011;3028;49.468;7.694;2024-03-22T04:29:13;1.63;;;1.52;;
5999;SDS011;3028;49.468;7.694;2024-03-22T04:31:13;1.70;;;1.60;;
5999;SDS011;3028;49.468;7.694;2024-03-22T04:33:14;2.15;;;1.42;;
5999;SDS011;3028;49.468;7.694;2024-03-22T04:35:15;3.05;;;1.50;;
5999;SDS011;3028;49.468;7.694;2024-03-22T04:37:16;1.58;;;1.48;;
5999;SDS011;3028;49.468;7.694;2024-03-22T04:39:16;1.17;;;1.17;;
5999;SDS011;3028;49.468;7.694;2024-03-22T04:41:17;1.63;;;1.40;;
5999;SDS011;3028;49.468;7.694;2024-03-22T04:43:18;2.00;;;1.52;;
5999;SDS011;3028;49.468;7.694;2024-03-22T04:45:18;1.45;;;1.35;;
5999;SDS011;3028;49.468;7.694;2024-03-22T04:47:19;1.80;;;1.70;;
5999;SDS011;3028;49.468;7.694;2024-03-22T04:49:20;1.45;;;1.35;;
5999;SDS011;3028;49.468;7.694;2024-03-22T04:51:21;2.67;;;2.47;;
5999;SDS011;3028;49.468;7.694;2024-03-22T04:53:22;1.77;;;1.67;;
5999;SDS011;3028;49.468;7.694;2024-03-22T04:55:23;1.20;;;1.20;;
5999;SDS011;3028;49.468;7.694;2024-03-22T04:57:24;1.40;;;1.30;;
5999;SDS011;3028;49.468;7.694;2024-03-22T04:59:24;1.60;;;1.45;;
5999;SDS011;3028;49.468;7.694;2024-03-22T05:01:25;1.98;;;1.63;;
5999;SDS011;3028;49.468;7.694;2024-03-22T05:03:26;1.83;;;1.73;;
5999;SDS011;3028;49.468;7.694;2024-03-22T05:05:27;2.20;;;2.00;;
5999;SDS011;3028;49.468;7.694;2024-03-22T05:07:28;1.75;;;1.65;;
5999;SDS011;3028;49.468;7.694;2024-03-22T05:09:28;1.58;;;1.48;;
5999;SDS011;3028;49.468;7.694;2024-03-22T05:11:30;1.27;;;1.20;;
5999;SDS011;3028;49.468;7.694;2024-03-22T05:13:31;1.40;;;1.33;;
5999;SDS011;3028;49.468;7.694;2024-03-22T05:15:32;1.73;;;1.60;;
5999;SDS011;3028;49.468;7.694;2024-03-22T05:17:32;1.42;;;1.40;;
5999;SDS011;3028;49.468;7.694;2024-03-22T05:19:34;1.67;;;1.58;;
5999;SDS011;3028;49.468;7.694;2024-03-22T05:21:34;1.52;;;1.42;;
5999;SDS011;3028;49.468;7.694;2024-03-22T05:23:35;1.20;;;1.17;;
5999;SDS011;3028;49.468;7.694;2024-03-22T05:25:36;1.50;;;1.40;;
5999;SDS011;3028;49.468;7.694;2024-03-22T05:27:36;1.63;;;1.52;;
5999;SDS011;3028;49.468;7.694;2024-03-22T05:29:37;1.50;;;1.40;;
5999;SDS011;3028;49.468;7.694;2024-03-22T05:31:45;1.48;;;1.38;;
5999;SDS011;3028;49.468;7.694;2024-03-22T05:33:51;1.40;;;1.30;;
5999;SDS011;3028;49.468;7.694;2024-03-22T05:35:52;1.23;;;1.17;;
5999;SDS011;3028;49.468;7.694;2024-03-22T05:37:53;1.80;;;1.70;;
5999;SDS011;3028;49.468;7.694;2024-03-22T05:39:54;2.13;;;2.03;;
5999;SDS011;3028;49.468;7.694;2024-03-22T05:41:55;1.50;;;1.40;;
5999;SDS011;3028;49.468;7.694;2024-03-22T05:43:56;1.63;;;1.42;;
5999;SDS011;3028;49.468;7.694;2024-03-22T05:45:56;1.35;;;1.25;;
5999;SDS011;3028;49.468;7.694;2024-03-22T05:47:57;3.50;;;1.60;;
5999;SDS011;3028;49.468;7.694;2024-03-22T05:49:58;3.35;;;1.58;;
5999;SDS011;3028;49.468;7.694;2024-03-22T05:52:00;2.70;;;2.45;;
5999;SDS011;3028;49.468;7.694;2024-03-22T05:54:01;1.42;;;1.33;;
5999;SDS011;3028;49.468;7.694;2024-03-22T05:56:06;1.67;;;1.58;;
5999;SDS011;3028;49.468;7.694;2024-03-22T05:58:06;2.35;;;1.92;;
5999;SDS011;3028;49.468;7.694;2024-03-22T06:00:09;2.58;;;1.30;;
5999;SDS011;3028;49.468;7.694;2024-03-22T06:02:11;1.98;;;1.77;;
5999;SDS011;3028;49.468;7.694;2024-03-22T06:04:12;4.40;;;1.83;;
5999;SDS011;3028;49.468;7.694;2024-03-22T06:06:13;9.20;;;1.60;;
5999;SDS011;3028;49.468;7.694;2024-03-22T06:08:14;2.92;;;2.05;;
5999;SDS011;3028;49.468;7.694;2024-03-22T06:10:19;1.98;;;1.88;;
5999;SDS011;3028;49.468;7.694;2024-03-22T06:12:19;2.67;;;1.58;;
5999;SDS011;3028;49.468;7.694;2024-03-22T06:14:22;3.47;;;1.35;;
5999;SDS011;3028;49.468;7.694;2024-03-22T06:16:23;3.13;;;1.88;;
5999;SDS011;3028;49.468;7.694;2024-03-22T06:18:23;1.05;;;1.05;;
5999;SDS011;3028;49.468;7.694;2024-03-22T06:20:24;2.20;;;2.00;;
5999;SDS011;3028;49.468;7.694;2024-03-22T06:22:25;1.48;;;1.42;;
5999;SDS011;3028;49.468;7.694;2024-03-22T06:24:26;14.85;;;2.60;;
5999;SDS011;3028;49.468;7.694;2024-03-22T06:26:27;6.82;;;2.50;;
5999;SDS011;3028;49.468;7.694;2024-03-22T06:28:28;2.60;;;2.33;;
5999;SDS011;3028;49.468;7.694;2024-03-22T06:30:29;2.60;;;2.00;;
5999;SDS011;3028;49.468;7.694;2024-03-22T06:32:32;2.20;;;2.00;;
5999;SDS011;3028;49.468;7.694;2024-03-22T06:34:33;1.33;;;1.20;;
5999;SDS011;3028;49.468;7.694;2024-03-22T06:36:34;1.40;;;1.30;;
5999;SDS011;3028;49.468;7.694;2024-03-22T06:38:34;2.58;;;2.45;;
5999;SDS011;3028;49.468;7.694;2024-03-22T06:40:35;1.70;;;1.60;;
5999;SDS011;3028;49.468;7.694;2024-03-22T06:42:36;1.80;;;1.50;;
5999;SDS011;3028;49.468;7.694;2024-03-22T06:44:37;2.05;;;1.95;;
5999;SDS011;3028;49.468;7.694;2024-03-22T06:46:38;1.77;;;1.65;;
5999;SDS011;3028;49.468;7.694;2024-03-22T06:48:39;2.38;;;1.63;;
5999;SDS011;3028;49.468;7.694;2024-03-22T06:50:41;3.17;;;2.92;;
5999;SDS011;3028;49.468;7.694;2024-03-22T06:52:42;1.80;;;1.70;;
5999;SDS011;3028;49.468;7.694;2024-03-22T06:54:43;1.77;;;1.67;;
5999;SDS011;3028;49.468;7.694;2024-03-22T06:56:43;1.80;;;1.70;;
5999;SDS011;3028;49.468;7.694;2024-03-22T06:58:44;8.30;;;2.47;;
5999;SDS011;3028;49.468;7.694;2024-03-22T07:00:45;2.05;;;1.85;;
5999;SDS011;3028;49.468;7.694;2024-03-22T07:02:45;4.40;;;1.58;;
5999;SDS011;3028;49.468;7.694;2024-03-22T07:04:46;1.90;;;1.80;;
5999;SDS011;3028;49.468;7.694;2024-03-22T07:06:47;4.10;;;1.88;;
5999;SDS011;3028;49.468;7.694;2024-03-22T07:08:48;4.70;;;1.50;;
5999;SDS011;3028;49.468;7.694;2024-03-22T07:10:50;5.53;;;1.40;;
5999;SDS011;3028;49.468;7.694;2024-03-22T07:12:51;1.83;;;1.58;;
5999;SDS011;3028;49.468;7.694;2024-03-22T07:14:52;1.38;;;1.27;;
5999;SDS011;3028;49.468;7.694;2024-03-22T07:16:52;1.60;;;1.50;;
5999;SDS011;3028;49.468;7.694;2024-03-22T07:18:54;1.85;;;1.75;;
5999;SDS011;3028;49.468;7.694;2024-03-22T07:20:55;5.43;;;2.38;;
5999;SDS011;3028;49.468;7.694;2024-03-22T07:22:56;2.38;;;2.17;;
5999;SDS011;3028;49.468;7.694;2024-03-22T07:24:57;2.13;;;1.80;;
5999;SDS011;3028;49.468;7.694;2024-03-22T07:26:58;1.42;;;1.33;;
5999;SDS011;3028;49.468;7.694;2024-03-22T07:28:58;2.58;;;2.38;;
5999;SDS011;3028;49.468;7.694;2024-03-22T07:30:59;2.13;;;1.92;;
5999;SDS011;3028;49.468;7.694;2024-03-22T07:33:00;2.67;;;1.73;;
5999;SDS011;3028;49.468;7.694;2024-03-22T07:35:01;2.13;;;1.80;;
5999;SDS011;3028;49.468;7.694;2024-03-22T07:37:02;1.92;;;1.77;;
5999;SDS011;3028;49.468;7.694;2024-03-22T07:39:04;2.47;;;1.92;;
5999;SDS011;3028;49.468;7.694;2024-03-22T07:41:06;4.00;;;1.75;;
5999;SDS011;3028;49.468;7.694;2024-03-22T07:43:07;2.42;;;1.70;;
5999;SDS011;3028;49.468;7.694;2024-03-22T07:45:08;2.83;;;2.63;;
5999;SDS011;3028;49.468;7.694;2024-03-22T07:47:09;1.77;;;1.67;;
5999;SDS011;3028;49.468;7.694;2024-03-22T07:49:10;2.00;;;1.83;;
5999;SDS011;3028;49.468;7.694;2024-03-22T07:51:12;2.15;;;1.67;;
5999;SDS011;3028;49.468;7.694;2024-03-22T07:53:12;2.42;;;2.05;;
5999;SDS011;3028;49.468;7.694;2024-03-22T07:55:14;1.90;;;1.80;;
5999;SDS011;3028;49.468;7.694;2024-03-22T07:57:15;1.50;;;1.40;;
5999;SDS011;3028;49.468;7.694;2024-03-22T07:59:16;1.85;;;1.75;;
5999;SDS011;3028;49.468;7.694;2024-03-22T08:01:16;2.15;;;1.90;;
5999;SDS011;3028;49.468;7.694;2024-03-22T08:03:18;1.73;;;1.63;;
5999;SDS011;3028;49.468;7.694;2024-03-22T08:05:19;2.70;;;2.45;;
5999;SDS011;3028;49.468;7.694;2024-03-22T08:07:22;3.33;;;2.23;;
5999;SDS011;3028;49.468;7.694;2024-03-22T08:09:23;1.90;;;1.70;;
5999;SDS011;3028;49.468;7.694;2024-03-22T08:11:23;2.08;;;1.88;;
5999;SDS011;3028;49.468;7.694;2024-03-22T08:13:24;1.98;;;1.88;;
5999;SDS011;3028;49.468;7.694;2024-03-22T08:15:25;4.38;;;2.20;;
5999;SDS011;3028;49.468;7.694;2024-03-22T08:17:26;2.88;;;2.53;;
5999;SDS011;3028;49.468;7.694;2024-03-22T08:19:27;2.72;;;2.03;;
5999;SDS011;3028;49.468;7.694;2024-03-22T08:21:28;2.28;;;2.05;;
5999;SDS011;3028;49.468;7.694;2024-03-22T08:23:29;2.72;;;2.53;;
5999;SDS011;3028;49.468;7.694;2024-03-22T08:25:29;3.20;;;2.72;;
5999;SDS011;3028;49.468;7.694;2024-03-22T08:27:30;3.03;;;2.65;;
5999;SDS011;3028;49.468;7.694;2024-03-22T08:29:31;3.35;;;2.85;;
5999;SDS011;3028;49.468;7.694;2024-03-22T08:31:32;5.72;;;3.92;;
5999;SDS011;3028;49.468;7.694;2024-03-22T08:33:33;3.70;;;3.40;;
5999;SDS011;3028;49.468;7.694;2024-03-22T08:35:33;3.17;;;2.88;;
5999;SDS011;3028;49.468;7.694;2024-03-22T08:37:34;4.00;;;2.17;;
5999;SDS011;3028;49.468;7.694;2024-03-22T08:39:35;4.88;;;2.35;;
5999;SDS011;3028;49.468;7.694;2024-03-22T08:41:38;3.13;;;2.92;;
5999;SDS011;3028;49.468;7.694;2024-03-22T08:43:40;3.03;;;2.17;;
5999;SDS011;3028;49.468;7.694;2024-03-22T08:45:41;2.20;;;2.00;;
5999;SDS011;3028;49.468;7.694;2024-03-22T08:47:42;3.15;;;2.58;;
5999;SDS011;3028;49.468;7.694;2024-03-22T08:49:43;10.27;;;2.70;;
5999;SDS011;3028;49.468;7.694;2024-03-22T08:51:44;2.20;;;1.98;;
5999;SDS011;3028;49.468;7.694;2024-03-22T08:53:46;3.08;;;2.78;;
5999;SDS011;3028;49.468;7.694;2024-03-22T08:55:47;16.95;;;2.03;;
5999;SDS011;3028;49.468;7.694;2024-03-22T08:57:48;3.65;;;2.70;;
5999;SDS011;3028;49.468;7.694;2024-03-22T08:59:49;2.58;;;2.38;;
5999;SDS011;3028;49.468;7.694;2024-03-22T09:01:49;2.78;;;2.58;;
5999;SDS011;3028;49.468;7.694;2024-03-22T09:03:51;2.67;;;1.80;;
5999;SDS011;3028;49.468;7.694;2024-03-22T09:05:52;2.90;;;2.13;;
5999;SDS011;3028;49.468;7.694;2024-03-22T09:07:54;1.75;;;1.65;;
5999;SDS011;3028;49.468;7.694;2024-03-22T09:09:56;3.00;;;2.63;;
5999;SDS011;3028;49.468;7.694;2024-03-22T09:11:56;2.03;;;1.75;;
5999;SDS011;3028;49.468;7.694;2024-03-22T09:13:57;1.65;;;1.55;;
5999;SDS011;3028;49.468;7.694;2024-03-22T09:15:58;6.13;;;1.92;;
5999;SDS011;3028;49.468;7.694;2024-03-22T09:17:59;2.35;;;1.42;;
5999;SDS011;3028;49.468;7.694;2024-03-22T09:20:00;1.85;;;1.75;;
5999;SDS011;3028;49.468;7.694;2024-03-22T09:22:01;3.10;;;2.05;;
5999;SDS011;3028;49.468;7.694;2024-03-22T09:24:03;2.35;;;2.15;;
5999;SDS011;3028;49.468;7.694;2024-03-22T09:26:05;1.52;;;1.42;;
5999;SDS011;3028;49.468;7.694;2024-03-22T09:28:06;1.95;;;1.77;;
5999;SDS011;3028;49.468;7.694;2024-03-22T09:30:06;1.95;;;1.75;;
5999;SDS011;3028;49.468;7.694;2024-03-22T09:32:07;2.60;;;2.40;;
5999;SDS011;3028;49.468;7.694;2024-03-22T09:34:09;3.85;;;2.42;;
5999;SDS011;3028;49.468;7.694;2024-03-22T09:36:12;1.40;;;1.30;;
5999;SDS011;3028;49.468;7.694;2024-03-22T09:38:13;1.77;;;1.67;;
5999;SDS011;3028;49.468;7.694;2024-03-22T09:40:15;1.67;;;1.50;;
5999;SDS011;3028;49.468;7.694;2024-03-22T09:42:17;2.65;;;1.98;;
5999;SDS011;3028;49.468;7.694;2024-03-22T09:44:20;2.30;;;2.10;;
5999;SDS011;3028;49.468;7.694;2024-03-22T09:46:22;6.18;;;1.55;;
5999;SDS011;3028;49.468;7.694;2024-03-22T09:48:23;2.20;;;1.98;;
5999;SDS011;3028;49.468;7.694;2024-03-22T09:50:24;2.97;;;2.78;;
5999;SDS011;3028;49.468;7.694;2024-03-22T09:52:25;2.45;;;2.08;;
5999;SDS011;3028;49.468;7.694;2024-03-22T09:54:30;1.75;;;1.65;;
5999;SDS011;3028;49.468;7.694;2024-03-22T09:56:31;3.50;;;2.25;;
5999;SDS011;3028;49.468;7.694;2024-03-22T09:58:32;3.60;;;2.63;;
5999;SDS011;3028;49.468;7.694;2024-03-22T10:00:34;2.00;;;1.80;;
5999;SDS011;3028;49.468;7.694;2024-03-22T10:02:35;5.28;;;2.20;;
5999;SDS011;3028;49.468;7.694;2024-03-22T10:04:36;2.17;;;1.70;;
5999;SDS011;3028;49.468;7.694;2024-03-22T10:06:37;2.38;;;2.08;;
5999;SDS011;3028;49.468;7.694;2024-03-22T10:08:38;9.05;;;1.98;;
5999;SDS011;3028;49.468;7.694;2024-03-22T10:10:38;2.42;;;1.95;;
5999;SDS011;3028;49.468;7.694;2024-03-22T10:12:39;3.67;;;1.70;;
5999;SDS011;3028;49.468;7.694;2024-03-22T10:14:42;2.70;;;2.00;;
5999;SDS011;3028;49.468;7.694;2024-03-22T10:16:43;6.75;;;2.00;;
5999;SDS011;3028;49.468;7.694;2024-03-22T10:18:44;2.40;;;2.22;;
5999;SDS011;3028;49.468;7.694;2024-03-22T10:20:45;3.38;;;2.05;;
5999;SDS011;3028;49.468;7.694;2024-03-22T10:22:49;2.88;;;2.05;;
5999;SDS011;3028;49.468;7.694;2024-03-22T10:24:55;2.30;;;2.00;;
5999;SDS011;3028;49.468;7.694;2024-03-22T10:27:00;1.70;;;1.40;;
5999;SDS011;3028;49.468;7.694;2024-03-22T10:29:05;2.75;;;1.52;;
5999;SDS011;3028;49.468;7.694;2024-03-22T10:31:06;1.67;;;1.50;;
5999;SDS011;3028;49.468;7.694;2024-03-22T10:33:07;2.20;;;2.00;;
5999;SDS011;3028;49.468;7.694;2024-03-22T10:35:08;1.70;;;1.60;;
5999;SDS011;3028;49.468;7.694;2024-03-22T10:37:10;1.15;;;1.05;;
5999;SDS011;3028;49.468;7.694;2024-03-22T10:39:17;1.60;;;1.50;;
5999;SDS011;3028;49.468;7.694;2024-03-22T10:41:21;1.67;;;1.58;;
5999;SDS011;3028;49.468;7.694;2024-03-22T10:43:22;2.58;;;1.70;;
5999;SDS011;3028;49.468;7.694;2024-03-22T10:45:22;1.83;;;1.60;;
5999;SDS011;3028;49.468;7.694;2024-03-22T10:47:26;2.00;;;1.25;;
5999;SDS011;3028;49.468;7.694;2024-03-22T10:49:30;1.58;;;1.35;;
5999;SDS011;3028;49.468;7.694;2024-03-22T10:51:34;1.60;;;1.50;;
5999;SDS011;3028;49.468;7.694;2024-03-22T10:53:35;2.28;;;2.03;;
5999;SDS011;3028;49.468;7.694;2024-03-22T10:55:37;2.40;;;1.75;;
5999;SDS011;3028;49.468;7.694;2024-03-22T10:57:39;4.93;;;2.05;;
5999;SDS011;3028;49.468;7.694;2024-03-22T10:59:43;2.60;;;1.88;;
5999;SDS011;3028;49.468;7.694;2024-03-22T11:01:45;2.78;;;2.25;;
5999;SDS011;3028;49.468;7.694;2024-03-22T11:03:49;2.47;;;2.03;;
5999;SDS011;3028;49.468;7.694;2024-03-22T11:05:50;2.40;;;2.20;;
5999;SDS011;3028;49.468;7.694;2024-03-22T11:08:03;2.63;;;2.00;;
5999;SDS011;3028;49.468;7.694;2024-03-22T11:10:05;3.45;;;3.15;;
5999;SDS011;3028;49.468;7.694;2024-03-22T11:12:06;2.67;;;2.45;;
5999;SDS011;3028;49.468;7.694;2024-03-22T11:14:08;2.65;;;2.00;;
5999;SDS011;3028;49.468;7.694;2024-03-22T11:16:09;3.97;;;3.08;;
5999;SDS011;3028;49.468;7.694;2024-03-22T11:18:10;3.17;;;2.33;;
5999;SDS011;3028;49.468;7.694;2024-03-22T11:20:14;3.47;;;2.50;;
5999;SDS011;3028;49.468;7.694;2024-03-22T11:22:15;7.57;;;2.65;;
5999;SDS011;3028;49.468;7.694;2024-03-22T11:24:16;2.67;;;2.45;;
5999;SDS011;3028;49.468;7.694;2024-03-22T11:26:16;2.90;;;2.15;;
5999;SDS011;3028;49.468;7.694;2024-03-22T11:28:18;3.60;;;3.10;;
5999;SDS011;3028;49.468;7.694;2024-03-22T11:30:19;3.47;;;2.90;;
5999;SDS011;3028;49.468;7.694;2024-03-22T11:32:21;2.65;;;2.45;;
5999;SDS011;3028;49.468;7.694;2024-03-22T11:34:23;5.72;;;4.00;;
5999;SDS011;3028;49.468;7.694;2024-03-22T11:36:24;4.45;;;3.00;;
5999;SDS011;3028;49.468;7.694;2024-03-22T11:38:25;4.53;;;3.38;;
5999;SDS011;3028;49.468;7.694;2024-03-22T11:40:27;4.45;;;3.22;;
5999;SDS011;3028;49.468;7.694;2024-03-22T11:42:30;3.60;;;3.30;;
5999;SDS011;3028;49.468;7.694;2024-03-22T11:44:33;4.82;;;3.42;;
5999;SDS011;3028;49.468;7.694;2024-03-22T11:46:37;2.33;;;2.03;;
5999;SDS011;3028;49.468;7.694;2024-03-22T11:48:39;3.85;;;3.47;;
5999;SDS011;3028;49.468;7.694;2024-03-22T11:50:45;4.00;;;3.28;;
5999;SDS011;3028;49.468;7.694;2024-03-22T11:52:46;3.45;;;2.97;;
5999;SDS011;3028;49.468;7.694;2024-03-22T11:54:54;3.85;;;2.45;;
5999;SDS011;3028;49.468;7.694;2024-03-22T11:56:55;8.02;;;4.28;;
5999;SDS011;3028;49.468;7.694;2024-03-22T11:58:58;9.07;;;3.05;;
5999;SDS011;3028;49.468;7.694;2024-03-22T12:00:59;4.13;;;3.38;;
5999;SDS011;3028;49.468;7.694;2024-03-22T12:03:04;7.07;;;3.88;;
5999;SDS011;3028;49.468;7.694;2024-03-22T12:05:07;4.40;;;3.60;;
5999;SDS011;3028;49.468;7.694;2024-03-22T12:07:12;6.22;;;4.13;;
5999;SDS011;3028;49.468;7.694;2024-03-22T12:09:14;4.15;;;3.75;;
5999;SDS011;3028;49.468;7.694;2024-03-22T12:11:15;6.57;;;4.45;;
5999;SDS011;3028;49.468;7.694;2024-03-22T12:13:16;3.70;;;3.40;;
5999;SDS011;3028;49.468;7.694;2024-03-22T12:15:17;6.85;;;3.70;;
5999;SDS011;3028;49.468;7.694;2024-03-22T12:17:18;6.70;;;3.90;;
5999;SDS011;3028;49.468;7.694;2024-03-22T12:19:20;3.80;;;3.38;;
5999;SDS011;3028;49.468;7.694;2024-03-22T12:21:21;3.80;;;3.38;;
5999;SDS011;3028;49.468;7.694;2024-03-22T12:23:23;3.58;;;3.28;;
5999;SDS011;3028;49.468;7.694;2024-03-22T12:25:24;4.22;;;3.72;;
5999;SDS011;3028;49.468;7.694;2024-03-22T12:27:26;4.88;;;4.38;;
5999;SDS011;3028;49.468;7.694;2024-03-22T12:29:28;5.70;;;3.90;;
5999;SDS011;3028;49.468;7.694;2024-03-22T12:31:32;4.43;;;3.78;;
5999;SDS011;3028;49.468;7.694;2024-03-22T12:33:35;4.43;;;3.53;;